sensor_id;sensor_type;location;lat;lon;timestamp;P1;durP1;ratioP1;P2;durP2;ratioP2
66575;SDS011;53428;47.686;16.584;2023-04-12T00:00:19;6.82;;;1.63;;
66575;SDS011;53428;47.686;16.584;2023-04-12T00:05:19;1.35;;;1.15;;
66575;SDS011;53428;47.686;16.584;2023-04-12T00:10:20;4.97;;;1.63;;
66575;SDS011;53428;47.686;16.584;2023-04-12T00:15:20;2.70;;;1.33;;
66575;SDS011;53428;47.686;16.584;2023-04-12T00:20:19;2.97;;;1.52;;
66575;SDS011;53428;47.686;16.584;2023-04-12T00:25:19;3.40;;;1.40;;
66575;SDS011;53428;47.686;16.584;2023-04-12T00:30:18;1.85;;;1.25;;
66575;SDS011;53428;47.686;16.584;2023-04-12T00:35:18;7.82;;;1.35;;
66575;SDS011;53428;47.686;16.584;2023-04-12T00:40:18;4.35;;;1.02;;
66575;SDS011;53428;47.686;16.584;2023-04-12T00:45:17;3.80;;;0.85;;
66575;SDS011;53428;47.686;16.584;2023-04-12T00:50:16;3.22;;;1.13;;
66575;SDS011;53428;47.686;16.584;2023-04-12T00:55:16;6.97;;;2.10;;
66575;SDS011;53428;47.686;16.584;2023-04-12T01:00:15;5.55;;;1.20;;
66575;SDS011;53428;47.686;16.584;2023-04-12T01:05:16;2.55;;;1.33;;
66575;SDS011;53428;47.686;16.584;2023-04-12T01:15:57;4.10;;;0.95;;
66575;SDS011;53428;47.686;16.584;2023-04-12T01:21:02;3.75;;;2.13;;
66575;SDS011;53428;47.686;16.584;2023-04-12T01:26:20;5.15;;;1.23;;
66575;SDS011;53428;47.686;16.584;2023-04-12T01:31:34;3.17;;;1.08;;
66575;SDS011;53428;47.686;16.584;2023-04-12T01:36:35;1.95;;;1.25;;
66575;SDS011;53428;47.686;16.584;2023-04-12T01:41:39;6.15;;;1.25;;
66575;SDS011;53428;47.686;16.584;2023-04-12T01:46:46;2.45;;;1.17;;
66575;SDS011;53428;47.686;16.584;2023-04-12T01:51:51;5.20;;;1.52;;
66575;SDS011;53428;47.686;16.584;2023-04-12T01:56:54;1.35;;;1.25;;
66575;SDS011;53428;47.686;16.584;2023-04-12T02:01:56;1.42;;;1.20;;
66575;SDS011;53428;47.686;16.584;2023-04-12T02:06:56;1.45;;;1.27;;
66575;SDS011;53428;47.686;16.584;2023-04-12T02:11:55;3.38;;;1.48;;
66575;SDS011;53428;47.686;16.584;2023-04-12T02:16:54;2.80;;;1.52;;
66575;SDS011;53428;47.686;16.584;2023-04-12T02:21:55;6.13;;;1.98;;
66575;SDS011;53428;47.686;16.584;2023-04-12T02:26:56;3.10;;;1.60;;
66575;SDS011;53428;47.686;16.584;2023-04-12T02:31:56;7.90;;;1.80;;
66575;SDS011;53428;47.686;16.584;2023-04-12T02:36:56;4.38;;;1.45;;
66575;SDS011;53428;47.686;16.584;2023-04-12T02:41:55;2.75;;;1.17;;
66575;SDS011;53428;47.686;16.584;2023-04-12T02:46:54;3.50;;;1.08;;
66575;SDS011;53428;47.686;16.584;2023-04-12T02:51:53;4.03;;;1.48;;
66575;SDS011;53428;47.686;16.584;2023-04-12T02:56:53;3.90;;;1.40;;
66575;SDS011;53428;47.686;16.584;2023-04-12T03:01:53;2.13;;;1.50;;
66575;SDS011;53428;47.686;16.584;2023-04-12T03:06:52;5.47;;;1.73;;
66575;SDS011;53428;47.686;16.584;2023-04-12T03:11:51;2.75;;;1.40;;
66575;SDS011;53428;47.686;16.584;2023-04-12T03:16:51;3.78;;;1.50;;
66575;SDS011;53428;47.686;16.584;2023-04-12T03:21:51;9.88;;;1.70;;
66575;SDS011;53428;47.686;16.584;2023-04-12T03:26:50;2.10;;;1.38;;
66575;SDS011;53428;47.686;16.584;2023-04-12T03:31:50;5.78;;;2.10;;
66575;SDS011;53428;47.686;16.584;2023-04-12T03:36:49;7.53;;;1.88;;
66575;SDS011;53428;47.686;16.584;2023-04-12T03:41:49;3.95;;;2.17;;
66575;SDS011;53428;47.686;16.584;2023-04-12T03:46:49;7.35;;;1.95;;
66575;SDS011;53428;47.686;16.584;2023-04-12T03:51:48;13.02;;;2.92;;
66575;SDS011;53428;47.686;16.584;2023-04-12T03:56:48;6.85;;;2.97;;
66575;SDS011;53428;47.686;16.584;2023-04-12T04:01:47;8.02;;;2.67;;
66575;SDS011;53428;47.686;16.584;2023-04-12T04:06:47;6.28;;;2.78;;
66575;SDS011;53428;47.686;16.584;2023-04-12T04:11:46;4.93;;;2.65;;
66575;SDS011;53428;47.686;16.584;2023-04-12T04:16:47;4.20;;;2.80;;
66575;SDS011;53428;47.686;16.584;2023-04-12T04:21:46;10.60;;;2.65;;
66575;SDS011;53428;47.686;16.584;2023-04-12T04:26:47;3.92;;;2.38;;
66575;SDS011;53428;47.686;16.584;2023-04-12T04:31:48;8.35;;;1.88;;
66575;SDS011;53428;47.686;16.584;2023-04-12T04:36:47;6.32;;;2.63;;
66575;SDS011;53428;47.686;16.584;2023-04-12T04:41:47;5.97;;;4.05;;
66575;SDS011;53428;47.686;16.584;2023-04-12T04:46:52;3.90;;;2.28;;
66575;SDS011;53428;47.686;16.584;2023-04-12T04:51:51;3.45;;;3.03;;
66575;SDS011;53428;47.686;16.584;2023-04-12T04:56:51;9.38;;;3.30;;
66575;SDS011;53428;47.686;16.584;2023-04-12T05:01:50;6.85;;;3.78;;
66575;SDS011;53428;47.686;16.584;2023-04-12T05:06:50;3.70;;;2.92;;
66575;SDS011;53428;47.686;16.584;2023-04-12T05:11:49;6.85;;;3.65;;
66575;SDS011;53428;47.686;16.584;2023-04-12T05:16:48;12.07;;;6.13;;
66575;SDS011;53428;47.686;16.584;2023-04-12T05:21:47;13.20;;;4.32;;
66575;SDS011;53428;47.686;16.584;2023-04-12T05:26:46;6.95;;;3.70;;
66575;SDS011;53428;47.686;16.584;2023-04-12T05:31:45;7.40;;;3.22;;
66575;SDS011;53428;47.686;16.584;2023-04-12T05:36:44;6.20;;;3.15;;
66575;SDS011;53428;47.686;16.584;2023-04-12T05:41:43;7.47;;;3.88;;
66575;SDS011;53428;47.686;16.584;2023-04-12T05:46:43;12.02;;;3.03;;
66575;SDS011;53428;47.686;16.584;2023-04-12T05:51:43;3.28;;;2.47;;
66575;SDS011;53428;47.686;16.584;2023-04-12T05:56:43;6.63;;;3.25;;
66575;SDS011;53428;47.686;16.584;2023-04-12T06:01:42;13.93;;;5.28;;
66575;SDS011;53428;47.686;16.584;2023-04-12T06:06:42;12.52;;;5.22;;
66575;SDS011;53428;47.686;16.584;2023-04-12T06:11:41;4.15;;;2.45;;
66575;SDS011;53428;47.686;16.584;2023-04-12T06:16:40;7.82;;;2.38;;
66575;SDS011;53428;47.686;16.584;2023-04-12T06:21:40;7.30;;;2.13;;
66575;SDS011;53428;47.686;16.584;2023-04-12T06:26:39;4.38;;;2.60;;
66575;SDS011;53428;47.686;16.584;2023-04-12T06:31:40;3.58;;;1.67;;
66575;SDS011;53428;47.686;16.584;2023-04-12T06:36:40;3.20;;;1.75;;
66575;SDS011;53428;47.686;16.584;2023-04-12T06:41:41;6.45;;;2.83;;
66575;SDS011;53428;47.686;16.584;2023-04-12T06:51:44;6.85;;;2.13;;
66575;SDS011;53428;47.686;16.584;2023-04-12T06:56:44;5.75;;;1.80;;
66575;SDS011;53428;47.686;16.584;2023-04-12T07:01:43;5.55;;;2.08;;
66575;SDS011;53428;47.686;16.584;2023-04-12T07:06:42;5.70;;;1.23;;
66575;SDS011;53428;47.686;16.584;2023-04-12T07:11:41;2.78;;;1.33;;
66575;SDS011;53428;47.686;16.584;2023-04-12T07:16:41;2.67;;;1.23;;
66575;SDS011;53428;47.686;16.584;2023-04-12T07:21:41;2.28;;;1.50;;
66575;SDS011;53428;47.686;16.584;2023-04-12T07:26:41;5.88;;;1.17;;
66575;SDS011;53428;47.686;16.584;2023-04-12T07:31:40;1.83;;;1.15;;
66575;SDS011;53428;47.686;16.584;2023-04-12T07:36:39;2.70;;;1.10;;
66575;SDS011;53428;47.686;16.584;2023-04-12T07:41:38;3.33;;;1.10;;
66575;SDS011;53428;47.686;16.584;2023-04-12T07:46:40;2.55;;;0.93;;
66575;SDS011;53428;47.686;16.584;2023-04-12T07:51:39;4.07;;;2.28;;
66575;SDS011;53428;47.686;16.584;2023-04-12T07:56:40;8.85;;;1.30;;
66575;SDS011;53428;47.686;16.584;2023-04-12T08:01:39;2.22;;;1.15;;
66575;SDS011;53428;47.686;16.584;2023-04-12T08:06:38;1.48;;;0.98;;
66575;SDS011;53428;47.686;16.584;2023-04-12T08:11:38;3.80;;;1.10;;
66575;SDS011;53428;47.686;16.584;2023-04-12T08:16:37;6.38;;;1.00;;
66575;SDS011;53428;47.686;16.584;2023-04-12T08:21:36;2.53;;;1.02;;
66575;SDS011;53428;47.686;16.584;2023-04-12T08:26:36;3.38;;;2.60;;
66575;SDS011;53428;47.686;16.584;2023-04-12T08:31:35;2.75;;;1.17;;
66575;SDS011;53428;47.686;16.584;2023-04-12T08:36:35;3.05;;;0.90;;
66575;SDS011;53428;47.686;16.584;2023-04-12T08:41:34;1.85;;;1.00;;
66575;SDS011;53428;47.686;16.584;2023-04-12T08:46:35;6.00;;;1.30;;
66575;SDS011;53428;47.686;16.584;2023-04-12T08:51:35;3.55;;;1.60;;
66575;SDS011;53428;47.686;16.584;2023-04-12T08:56:35;6.85;;;2.92;;
66575;SDS011;53428;47.686;16.584;2023-04-12T09:01:34;2.75;;;1.00;;
66575;SDS011;53428;47.686;16.584;2023-04-12T09:06:35;1.92;;;0.95;;
66575;SDS011;53428;47.686;16.584;2023-04-12T09:11:34;3.70;;;1.15;;
66575;SDS011;53428;47.686;16.584;2023-04-12T09:21:34;4.95;;;1.27;;
66575;SDS011;53428;47.686;16.584;2023-04-12T09:26:35;2.35;;;1.02;;
66575;SDS011;53428;47.686;16.584;2023-04-12T09:31:34;2.92;;;1.15;;
66575;SDS011;53428;47.686;16.584;2023-04-12T09:36:39;4.55;;;1.10;;
66575;SDS011;53428;47.686;16.584;2023-04-12T09:41:39;7.25;;;1.23;;
66575;SDS011;53428;47.686;16.584;2023-04-12T09:46:48;3.85;;;1.50;;
66575;SDS011;53428;47.686;16.584;2023-04-12T09:51:50;3.90;;;1.80;;
66575;SDS011;53428;47.686;16.584;2023-04-12T09:56:50;3.92;;;0.93;;
66575;SDS011;53428;47.686;16.584;2023-04-12T10:01:49;4.05;;;1.20;;
66575;SDS011;53428;47.686;16.584;2023-04-12T10:06:50;5.40;;;1.33;;
66575;SDS011;53428;47.686;16.584;2023-04-12T10:11:50;2.13;;;1.00;;
66575;SDS011;53428;47.686;16.584;2023-04-12T10:16:50;5.38;;;1.20;;
66575;SDS011;53428;47.686;16.584;2023-04-12T10:21:54;1.08;;;0.80;;
66575;SDS011;53428;47.686;16.584;2023-04-12T10:26:57;3.05;;;1.40;;
66575;SDS011;53428;47.686;16.584;2023-04-12T10:32:22;9.70;;;1.52;;
66575;SDS011;53428;47.686;16.584;2023-04-12T10:37:21;3.35;;;1.20;;
66575;SDS011;53428;47.686;16.584;2023-04-12T10:42:40;4.47;;;1.05;;
66575;SDS011;53428;47.686;16.584;2023-04-12T11:09:15;3.92;;;1.05;;
66575;SDS011;53428;47.686;16.584;2023-04-12T11:14:36;7.07;;;1.42;;
66575;SDS011;53428;47.686;16.584;2023-04-12T11:19:41;3.00;;;1.08;;
66575;SDS011;53428;47.686;16.584;2023-04-12T11:24:42;5.07;;;1.20;;
66575;SDS011;53428;47.686;16.584;2023-04-12T11:29:43;3.83;;;1.20;;
66575;SDS011;53428;47.686;16.584;2023-04-12T11:34:44;2.92;;;1.13;;
66575;SDS011;53428;47.686;16.584;2023-04-12T11:39:48;6.00;;;1.60;;
66575;SDS011;53428;47.686;16.584;2023-04-12T11:44:50;2.97;;;1.17;;
66575;SDS011;53428;47.686;16.584;2023-04-12T11:49:53;1.70;;;1.05;;
66575;SDS011;53428;47.686;16.584;2023-04-12T11:54:54;3.05;;;1.20;;
66575;SDS011;53428;47.686;16.584;2023-04-12T11:59:56;5.00;;;1.70;;
66575;SDS011;53428;47.686;16.584;2023-04-12T12:04:59;2.22;;;0.95;;
66575;SDS011;53428;47.686;16.584;2023-04-12T12:09:58;0.82;;;0.80;;
66575;SDS011;53428;47.686;16.584;2023-04-12T12:14:58;2.13;;;1.13;;
66575;SDS011;53428;47.686;16.584;2023-04-12T12:19:58;2.28;;;1.52;;
66575;SDS011;53428;47.686;16.584;2023-04-12T12:24:59;2.95;;;1.58;;
66575;SDS011;53428;47.686;16.584;2023-04-12T12:29:59;2.03;;;1.00;;
66575;SDS011;53428;47.686;16.584;2023-04-12T12:35:00;3.75;;;1.20;;
66575;SDS011;53428;47.686;16.584;2023-04-12T12:40:11;2.97;;;1.83;;
66575;SDS011;53428;47.686;16.584;2023-04-12T12:45:19;4.30;;;2.00;;
66575;SDS011;53428;47.686;16.584;2023-04-12T12:50:24;6.25;;;2.03;;
66575;SDS011;53428;47.686;16.584;2023-04-12T12:55:25;6.18;;;1.85;;
66575;SDS011;53428;47.686;16.584;2023-04-12T13:00:27;5.45;;;1.30;;
66575;SDS011;53428;47.686;16.584;2023-04-12T13:05:26;3.53;;;1.70;;
66575;SDS011;53428;47.686;16.584;2023-04-12T13:10:26;3.53;;;1.40;;
66575;SDS011;53428;47.686;16.584;2023-04-12T13:15:25;2.53;;;1.20;;
66575;SDS011;53428;47.686;16.584;2023-04-12T13:20:24;3.53;;;1.95;;
66575;SDS011;53428;47.686;16.584;2023-04-12T13:25:25;4.40;;;1.95;;
66575;SDS011;53428;47.686;16.584;2023-04-12T13:30:24;1.70;;;1.13;;
66575;SDS011;53428;47.686;16.584;2023-04-12T13:35:24;6.63;;;2.75;;
66575;SDS011;53428;47.686;16.584;2023-04-12T13:40:23;4.28;;;1.63;;
66575;SDS011;53428;47.686;16.584;2023-04-12T13:45:22;3.15;;;2.22;;
66575;SDS011;53428;47.686;16.584;2023-04-12T13:50:21;1.88;;;1.33;;
66575;SDS011;53428;47.686;16.584;2023-04-12T13:55:21;3.42;;;1.50;;
66575;SDS011;53428;47.686;16.584;2023-04-12T14:00:21;6.55;;;2.38;;
66575;SDS011;53428;47.686;16.584;2023-04-12T14:05:21;4.68;;;2.03;;
66575;SDS011;53428;47.686;16.584;2023-04-12T14:10:20;8.88;;;2.70;;
66575;SDS011;53428;47.686;16.584;2023-04-12T14:15:19;4.78;;;1.67;;
66575;SDS011;53428;47.686;16.584;2023-04-12T14:20:19;6.70;;;1.40;;
66575;SDS011;53428;47.686;16.584;2023-04-12T14:25:20;3.58;;;1.85;;
66575;SDS011;53428;47.686;16.584;2023-04-12T14:30:19;3.22;;;1.92;;
66575;SDS011;53428;47.686;16.584;2023-04-12T14:35:19;2.78;;;1.52;;
66575;SDS011;53428;47.686;16.584;2023-04-12T14:40:18;3.88;;;1.85;;
66575;SDS011;53428;47.686;16.584;2023-04-12T14:45:18;2.85;;;1.40;;
66575;SDS011;53428;47.686;16.584;2023-04-12T14:50:18;2.28;;;1.13;;
66575;SDS011;53428;47.686;16.584;2023-04-12T14:55:19;2.38;;;1.30;;
66575;SDS011;53428;47.686;16.584;2023-04-12T15:00:19;3.47;;;2.13;;
66575;SDS011;53428;47.686;16.584;2023-04-12T15:05:19;8.68;;;1.60;;
66575;SDS011;53428;47.686;16.584;2023-04-12T15:10:19;1.92;;;1.58;;
66575;SDS011;53428;47.686;16.584;2023-04-12T15:15:19;2.10;;;1.42;;
66575;SDS011;53428;47.686;16.584;2023-04-12T15:20:18;5.68;;;2.05;;
66575;SDS011;53428;47.686;16.584;2023-04-12T15:25:17;3.97;;;2.00;;
66575;SDS011;53428;47.686;16.584;2023-04-12T15:30:18;3.83;;;1.83;;
66575;SDS011;53428;47.686;16.584;2023-04-12T15:35:18;8.43;;;2.05;;
66575;SDS011;53428;47.686;16.584;2023-04-12T15:40:17;5.90;;;1.60;;
66575;SDS011;53428;47.686;16.584;2023-04-12T15:45:19;4.05;;;1.55;;
66575;SDS011;53428;47.686;16.584;2023-04-12T15:50:18;5.28;;;2.05;;
66575;SDS011;53428;47.686;16.584;2023-04-12T15:55:18;4.57;;;1.85;;
66575;SDS011;53428;47.686;16.584;2023-04-12T16:00:19;2.88;;;2.00;;
66575;SDS011;53428;47.686;16.584;2023-04-12T16:05:24;5.03;;;1.75;;
66575;SDS011;53428;47.686;16.584;2023-04-12T16:10:24;4.13;;;2.00;;
66575;SDS011;53428;47.686;16.584;2023-04-12T16:15:24;3.10;;;1.75;;
66575;SDS011;53428;47.686;16.584;2023-04-12T16:20:24;6.68;;;2.10;;
66575;SDS011;53428;47.686;16.584;2023-04-12T16:25:25;3.13;;;2.00;;
66575;SDS011;53428;47.686;16.584;2023-04-12T16:30:25;9.13;;;1.60;;
66575;SDS011;53428;47.686;16.584;2023-04-12T16:35:25;6.85;;;1.77;;
66575;SDS011;53428;47.686;16.584;2023-04-12T16:40:24;2.75;;;1.67;;
66575;SDS011;53428;47.686;16.584;2023-04-12T16:45:24;3.78;;;2.42;;
66575;SDS011;53428;47.686;16.584;2023-04-12T16:50:24;6.43;;;2.55;;
66575;SDS011;53428;47.686;16.584;2023-04-12T16:55:23;6.85;;;1.85;;
66575;SDS011;53428;47.686;16.584;2023-04-12T17:00:23;3.50;;;2.15;;
66575;SDS011;53428;47.686;16.584;2023-04-12T17:05:26;3.13;;;2.03;;
66575;SDS011;53428;47.686;16.584;2023-04-12T17:10:26;5.22;;;2.60;;
66575;SDS011;53428;47.686;16.584;2023-04-12T17:15:26;6.43;;;3.13;;
66575;SDS011;53428;47.686;16.584;2023-04-12T17:20:27;19.00;;;5.63;;
66575;SDS011;53428;47.686;16.584;2023-04-12T17:25:27;8.20;;;3.15;;
66575;SDS011;53428;47.686;16.584;2023-04-12T17:30:28;10.77;;;4.32;;
66575;SDS011;53428;47.686;16.584;2023-04-12T17:35:28;4.85;;;2.42;;
66575;SDS011;53428;47.686;16.584;2023-04-12T17:40:29;7.00;;;2.70;;
66575;SDS011;53428;47.686;16.584;2023-04-12T17:45:28;9.32;;;4.55;;
66575;SDS011;53428;47.686;16.584;2023-04-12T17:50:28;5.22;;;1.80;;
66575;SDS011;53428;47.686;16.584;2023-04-12T17:55:28;7.43;;;2.60;;
66575;SDS011;53428;47.686;16.584;2023-04-12T18:00:27;4.20;;;2.13;;
66575;SDS011;53428;47.686;16.584;2023-04-12T18:05:26;3.15;;;1.95;;
66575;SDS011;53428;47.686;16.584;2023-04-12T18:10:26;4.82;;;2.13;;
66575;SDS011;53428;47.686;16.584;2023-04-12T18:15:25;3.03;;;2.33;;
66575;SDS011;53428;47.686;16.584;2023-04-12T18:20:25;6.68;;;2.97;;
66575;SDS011;53428;47.686;16.584;2023-04-12T18:25:25;4.78;;;2.15;;
66575;SDS011;53428;47.686;16.584;2023-04-12T18:30:25;5.25;;;2.03;;
66575;SDS011;53428;47.686;16.584;2023-04-12T18:35:24;4.22;;;2.13;;
66575;SDS011;53428;47.686;16.584;2023-04-12T18:40:25;5.63;;;2.20;;
66575;SDS011;53428;47.686;16.584;2023-04-12T18:45:25;4.28;;;1.88;;
66575;SDS011;53428;47.686;16.584;2023-04-12T18:50:24;5.30;;;2.72;;
66575;SDS011;53428;47.686;16.584;2023-04-12T18:55:27;3.70;;;2.10;;
66575;SDS011;53428;47.686;16.584;2023-04-12T19:00:39;4.15;;;2.00;;
66575;SDS011;53428;47.686;16.584;2023-04-12T19:05:39;3.97;;;1.85;;
66575;SDS011;53428;47.686;16.584;2023-04-12T19:10:39;3.58;;;1.65;;
66575;SDS011;53428;47.686;16.584;2023-04-12T19:15:39;7.53;;;1.80;;
66575;SDS011;53428;47.686;16.584;2023-04-12T19:20:39;7.25;;;2.22;;
66575;SDS011;53428;47.686;16.584;2023-04-12T19:25:38;4.32;;;1.83;;
66575;SDS011;53428;47.686;16.584;2023-04-12T19:30:38;5.38;;;2.45;;
66575;SDS011;53428;47.686;16.584;2023-04-12T19:35:38;3.60;;;1.95;;
66575;SDS011;53428;47.686;16.584;2023-04-12T19:40:38;3.53;;;1.92;;
66575;SDS011;53428;47.686;16.584;2023-04-12T19:45:37;6.53;;;2.75;;
66575;SDS011;53428;47.686;16.584;2023-04-12T19:50:37;2.95;;;2.20;;
66575;SDS011;53428;47.686;16.584;2023-04-12T19:55:37;2.88;;;2.35;;
66575;SDS011;53428;47.686;16.584;2023-04-12T20:00:37;2.75;;;2.20;;
66575;SDS011;53428;47.686;16.584;2023-04-12T20:05:39;7.85;;;2.92;;
66575;SDS011;53428;47.686;16.584;2023-04-12T20:10:42;4.90;;;2.50;;
66575;SDS011;53428;47.686;16.584;2023-04-12T20:15:42;8.45;;;3.40;;
66575;SDS011;53428;47.686;16.584;2023-04-12T20:20:42;3.92;;;2.15;;
66575;SDS011;53428;47.686;16.584;2023-04-12T20:25:43;5.95;;;2.25;;
66575;SDS011;53428;47.686;16.584;2023-04-12T20:30:46;4.45;;;2.53;;
66575;SDS011;53428;47.686;16.584;2023-04-12T20:35:47;3.22;;;2.25;;
66575;SDS011;53428;47.686;16.584;2023-04-12T20:40:48;2.97;;;2.20;;
66575;SDS011;53428;47.686;16.584;2023-04-12T20:45:47;5.32;;;2.20;;
66575;SDS011;53428;47.686;16.584;2023-04-12T20:50:48;5.07;;;2.75;;
66575;SDS011;53428;47.686;16.584;2023-04-12T20:55:48;4.05;;;2.00;;
66575;SDS011;53428;47.686;16.584;2023-04-12T21:00:47;3.40;;;2.08;;
66575;SDS011;53428;47.686;16.584;2023-04-12T21:05:47;6.45;;;2.33;;
66575;SDS011;53428;47.686;16.584;2023-04-12T21:10:48;4.05;;;2.20;;
66575;SDS011;53428;47.686;16.584;2023-04-12T21:15:48;4.55;;;2.10;;
66575;SDS011;53428;47.686;16.584;2023-04-12T21:20:48;2.88;;;2.13;;
66575;SDS011;53428;47.686;16.584;2023-04-12T21:25:48;5.07;;;2.60;;
66575;SDS011;53428;47.686;16.584;2023-04-12T21:30:48;3.78;;;2.45;;
66575;SDS011;53428;47.686;16.584;2023-04-12T21:35:53;3.88;;;2.72;;
66575;SDS011;53428;47.686;16.584;2023-04-12T21:40:53;14.25;;;2.83;;
66575;SDS011;53428;47.686;16.584;2023-04-12T21:45:55;8.27;;;3.25;;
66575;SDS011;53428;47.686;16.584;2023-04-12T21:50:54;7.03;;;2.45;;
66575;SDS011;53428;47.686;16.584;2023-04-12T21:55:53;4.20;;;2.33;;
66575;SDS011;53428;47.686;16.584;2023-04-12T22:00:53;4.35;;;2.47;;
66575;SDS011;53428;47.686;16.584;2023-04-12T22:05:53;7.15;;;2.75;;
66575;SDS011;53428;47.686;16.584;2023-04-12T22:10:52;6.90;;;2.40;;
66575;SDS011;53428;47.686;16.584;2023-04-12T22:15:52;3.28;;;2.15;;
66575;SDS011;53428;47.686;16.584;2023-04-12T22:20:51;4.22;;;2.67;;
66575;SDS011;53428;47.686;16.584;2023-04-12T22:25:50;4.18;;;2.35;;
66575;SDS011;53428;47.686;16.584;2023-04-12T22:30:56;5.85;;;2.20;;
66575;SDS011;53428;47.686;16.584;2023-04-12T22:35:55;4.45;;;2.30;;
66575;SDS011;53428;47.686;16.584;2023-04-12T22:40:54;4.22;;;2.42;;
66575;SDS011;53428;47.686;16.584;2023-04-12T22:45:59;7.15;;;2.38;;
66575;SDS011;53428;47.686;16.584;2023-04-12T22:51:02;3.10;;;2.13;;
66575;SDS011;53428;47.686;16.584;2023-04-12T22:56:02;3.50;;;2.30;;
66575;SDS011;53428;47.686;16.584;2023-04-12T23:01:01;5.47;;;2.95;;
66575;SDS011;53428;47.686;16.584;2023-04-12T23:06:04;2.97;;;2.25;;
66575;SDS011;53428;47.686;16.584;2023-04-12T23:11:04;5.60;;;2.75;;
66575;SDS011;53428;47.686;16.584;2023-04-12T23:16:03;8.10;;;2.53;;
66575;SDS011;53428;47.686;16.584;2023-04-12T23:21:04;7.38;;;3.45;;
66575;SDS011;53428;47.686;16.584;2023-04-12T23:26:04;11.10;;;2.97;;
66575;SDS011;53428;47.686;16.584;2023-04-12T23:31:04;3.30;;;2.30;;
66575;SDS011;53428;47.686;16.584;2023-04-12T23:36:04;3.38;;;2.20;;
66575;SDS011;53428;47.686;16.584;2023-04-12T23:41:04;3.50;;;2.50;;
66575;SDS011;53428;47.686;16.584;2023-04-12T23:46:05;6.68;;;2.50;;
66575;SDS011;53428;47.686;16.584;2023-04-12T23:51:04;4.63;;;2.38;;
66575;SDS011;53428;47.686;16.584;2023-04-12T23:56:04;4.07;;;2.50;;
